Time;durP1;ratioP1;P1;durP2;ratioP2;P2;SDS_P1;SDS_P2;PMS_P1;PMS_P2;Temp;Humidity;BMP_temperature;BMP_pressure;BME280_temperature;BME280_humidity;BME280_pressure;Samples;Min_cycle;Max_cycle;Signal;HPM_P1;HPM_P2
2022/02/22 00:00:07;;;;;;;2.65;1.35;;;;;;;;;;5117497;28;20039;-78
2022/02/22 00:02:35;;;;;;;2.53;1.20;;;;;;;;;;5118287;28;20096;-78
2022/02/22 00:05:01;;;;;;;6.53;1.60;;;;;;;;;;5117849;28;20122;-78
2022/02/22 00:07:28;;;;;;;5.00;1.38;;;;;;;;;;5118390;28;20078;-78
2022/02/22 00:09:55;;;;;;;7.60;1.50;;;;;;;;;;5117849;28;20082;-78
2022/02/22 00:12:22;;;;;;;8.55;2.33;;;;;;;;;;5118331;28;20075;-78
2022/02/22 00:14:49;;;;;;;5.60;2.75;;;;;;;;;;5116946;28;20072;-78
2022/02/22 00:17:16;;;;;;;4.68;1.30;;;;;;;;;;5116409;28;20131;-78
2022/02/22 00:19:44;;;;;;;5.45;1.38;;;;;;;;;;5116206;28;20044;-78
2022/02/22 00:22:10;;;;;;;6.90;1.63;;;;;;;;;;5114917;28;20079;-78
2022/02/22 00:24:37;;;;;;;4.07;1.08;;;;;;;;;;5116746;28;20043;-78
2022/02/22 00:27:04;;;;;;;3.90;1.00;;;;;;;;;;5115626;28;20039;-79
2022/02/22 00:29:31;;;;;;;5.22;1.45;;;;;;;;;;5116500;28;20088;-79
2022/02/22 00:31:57;;;;;;;4.30;1.48;;;;;;;;;;5116030;28;20413;-78
2022/02/22 00:34:24;;;;;;;4.30;1.20;;;;;;;;;;5116366;28;20079;-78
2022/02/22 00:36:52;;;;;;;3.60;1.10;;;;;;;;;;5116465;28;20123;-78
2022/02/22 00:39:18;;;;;;;5.93;1.55;;;;;;;;;;5115240;28;20527;-78
2022/02/22 00:41:45;;;;;;;5.63;1.60;;;;;;;;;;5116651;28;20131;-78
2022/02/22 00:44:11;;;;;;;5.18;1.17;;;;;;;;;;5115840;28;20044;-78
2022/02/22 00:46:38;;;;;;;7.10;3.47;;;;;;;;;;5116800;28;20084;-78
2022/02/22 00:49:04;;;;;;;5.47;1.10;;;;;;;;;;5116054;28;20075;-78
2022/02/22 00:51:31;;;;;;;6.15;1.60;;;;;;;;;;5115958;28;20071;-78
2022/02/22 00:53:59;;;;;;;5.90;1.45;;;;;;;;;;5115337;28;20082;-78
2022/02/22 00:56:25;;;;;;;7.20;1.45;;;;;;;;;;5116500;28;20036;-78
2022/02/22 00:58:52;;;;;;;5.82;1.20;;;;;;;;;;5116499;28;20075;-78
2022/02/22 01:01:18;;;;;;;3.75;1.20;;;;;;;;;;5115471;28;20444;-78
2022/02/22 01:03:45;;;;;;;3.72;1.75;;;;;;;;;;5116231;28;20071;-78
2022/02/22 01:06:12;;;;;;;2.25;1.20;;;;;;;;;;5116647;28;20099;-79
2022/02/22 01:08:39;;;;;;;3.03;1.48;;;;;;;;;;5116129;28;20078;-79
2022/02/22 01:11:07;;;;;;;4.45;1.30;;;;;;;;;;5115819;28;20123;-79
2022/02/22 01:13:34;;;;;;;5.78;1.33;;;;;;;;;;5116014;28;20071;-78
2022/02/22 01:16:00;;;;;;;3.60;1.02;;;;;;;;;;5116031;28;20365;-79
2022/02/22 01:18:27;;;;;;;13.32;2.15;;;;;;;;;;5115159;28;20071;-79
2022/02/22 01:20:53;;;;;;;1.88;0.80;;;;;;;;;;5116273;28;20071;-78
2022/02/22 01:23:20;;;;;;;3.88;1.10;;;;;;;;;;5113157;28;20093;-79
2022/02/22 01:25:47;;;;;;;2.05;1.05;;;;;;;;;;5115665;28;20075;-78
2022/02/22 01:28:14;;;;;;;5.80;1.92;;;;;;;;;;5115540;28;20079;-79
2022/02/22 01:30:41;;;;;;;3.63;1.00;;;;;;;;;;5115900;28;20118;-78
2022/02/22 01:33:08;;;;;;;2.00;0.93;;;;;;;;;;5117289;28;20098;-78
2022/02/22 01:35:34;;;;;;;4.00;0.90;;;;;;;;;;5118814;28;20570;-78
2022/02/22 01:38:01;;;;;;;3.17;1.40;;;;;;;;;;5118221;28;20575;-78
2022/02/22 01:40:28;;;;;;;7.10;1.55;;;;;;;;;;5118345;28;20071;-78
2022/02/22 01:42:54;;;;;;;3.70;1.40;;;;;;;;;;5119173;28;20126;-78
2022/02/22 01:45:24;;;;;;;7.20;2.20;;;;;;;;;;5100290;28;20040;-78
2022/02/22 01:47:50;;;;;;;3.25;1.20;;;;;;;;;;5118741;28;20079;-78
2022/02/22 01:50:17;;;;;;;5.65;1.52;;;;;;;;;;5119911;28;20082;-78
2022/02/22 01:52:44;;;;;;;4.13;1.23;;;;;;;;;;5118858;28;20094;-78
2022/02/22 01:55:11;;;;;;;7.10;1.20;;;;;;;;;;5119152;28;20131;-78
2022/02/22 01:57:38;;;;;;;4.13;1.63;;;;;;;;;;5119181;28;20082;-78
2022/02/22 02:00:08;;;;;;;3.38;1.15;;;;;;;;;;5119170;28;20063;-78
2022/02/22 02:02:36;;;;;;;3.15;1.15;;;;;;;;;;5119242;28;20051;-78
2022/02/22 02:05:03;;;;;;;7.00;1.25;;;;;;;;;;5119370;28;20071;-78
2022/02/22 02:07:30;;;;;;;4.53;1.27;;;;;;;;;;5118720;28;20075;-78
2022/02/22 02:09:56;;;;;;;5.57;1.35;;;;;;;;;;5119057;28;20126;-78
2022/02/22 02:12:23;;;;;;;4.15;1.40;;;;;;;;;;5119449;28;20040;-78
2022/02/22 02:14:49;;;;;;;8.82;2.53;;;;;;;;;;5119166;28;20094;-78
2022/02/22 02:17:16;;;;;;;5.00;1.20;;;;;;;;;;5117952;28;20082;-78
2022/02/22 02:19:44;;;;;;;5.05;1.08;;;;;;;;;;5118628;28;20122;-78
2022/02/22 02:22:12;;;;;;;6.53;1.58;;;;;;;;;;5116977;28;20079;-78
2022/02/22 02:24:38;;;;;;;2.60;1.55;;;;;;;;;;5120366;28;20071;-78
2022/02/22 02:27:05;;;;;;;3.88;0.85;;;;;;;;;;5119945;28;20424;-79
2022/02/22 02:29:31;;;;;;;4.38;1.25;;;;;;;;;;5119366;28;20047;-79
2022/02/22 02:31:58;;;;;;;4.97;1.15;;;;;;;;;;5120797;28;20071;-78
2022/02/22 02:34:27;;;;;;;5.72;1.20;;;;;;;;;;5120516;28;20082;-79
2022/02/22 02:36:54;;;;;;;2.75;1.08;;;;;;;;;;5120702;28;20098;-79
2022/02/22 02:39:22;;;;;;;2.60;1.33;;;;;;;;;;5120153;28;20082;-79
2022/02/22 02:41:49;;;;;;;3.15;0.98;;;;;;;;;;5120383;28;20079;-79
2022/02/22 02:44:17;;;;;;;7.28;1.30;;;;;;;;;;5120567;28;20086;-79
2022/02/22 02:46:44;;;;;;;4.97;1.10;;;;;;;;;;5120813;28;20090;-79
2022/02/22 02:49:12;;;;;;;3.42;1.98;;;;;;;;;;5120191;28;20083;-79
2022/02/22 02:51:39;;;;;;;2.78;1.05;;;;;;;;;;5119816;28;20075;-78
2022/02/22 02:54:06;;;;;;;5.28;1.48;;;;;;;;;;5118640;28;20118;-78
2022/02/22 02:56:34;;;;;;;4.97;1.23;;;;;;;;;;5119192;28;20122;-77
2022/02/22 02:59:03;;;;;;;4.43;1.00;;;;;;;;;;5119053;28;20071;-77
2022/02/22 03:01:32;;;;;;;5.20;1.30;;;;;;;;;;5117813;28;20070;-78
2022/02/22 03:03:59;;;;;;;4.20;1.20;;;;;;;;;;5118213;28;20116;-78
2022/02/22 03:06:33;;;;;;;4.05;1.30;;;;;;;;;;5118081;28;20082;-78
2022/02/22 03:08:59;;;;;;;6.35;1.23;;;;;;;;;;5117991;28;20074;-79
2022/02/22 03:11:26;;;;;;;2.35;0.90;;;;;;;;;;5118066;28;20039;-79
2022/02/22 03:13:54;;;;;;;11.07;2.70;;;;;;;;;;5117721;28;20122;-78
2022/02/22 03:16:21;;;;;;;4.60;1.05;;;;;;;;;;5116965;28;20126;-78
2022/02/22 03:18:47;;;;;;;3.55;0.98;;;;;;;;;;5117860;28;20078;-78
2022/02/22 03:21:14;;;;;;;2.70;1.08;;;;;;;;;;5117385;28;20118;-78
2022/02/22 03:23:40;;;;;;;4.70;1.40;;;;;;;;;;5116370;28;20079;-78
2022/02/22 03:26:07;;;;;;;4.05;0.93;;;;;;;;;;5116604;28;20075;-78
2022/02/22 03:28:34;;;;;;;2.20;1.02;;;;;;;;;;5117304;28;20116;-78
2022/02/22 03:31:03;;;;;;;6.72;1.67;;;;;;;;;;5117321;28;20054;-78
2022/02/22 03:33:30;;;;;;;5.38;1.55;;;;;;;;;;5116759;28;20048;-78
2022/02/22 03:35:57;;;;;;;5.78;1.17;;;;;;;;;;5117183;28;20534;-78
2022/02/22 03:38:23;;;;;;;6.82;1.55;;;;;;;;;;5117486;28;20134;-78
2022/02/22 03:40:50;;;;;;;3.70;1.58;;;;;;;;;;5116576;28;20537;-78
2022/02/22 03:43:16;;;;;;;4.75;1.30;;;;;;;;;;5116620;28;20086;-78
2022/02/22 03:45:43;;;;;;;6.15;1.00;;;;;;;;;;5117752;28;20043;-78
2022/02/22 03:48:11;;;;;;;4.90;1.10;;;;;;;;;;5117556;28;20086;-79
2022/02/22 03:50:37;;;;;;;2.95;0.90;;;;;;;;;;5116938;28;20118;-79
2022/02/22 03:53:04;;;;;;;5.35;0.93;;;;;;;;;;5116610;28;20122;-79
2022/02/22 03:55:31;;;;;;;4.18;1.05;;;;;;;;;;5116241;28;20071;-78
2022/02/22 03:57:57;;;;;;;6.30;2.28;;;;;;;;;;5116905;28;20075;-78
2022/02/22 04:00:25;;;;;;;6.70;2.00;;;;;;;;;;5117043;28;20122;-77
2022/02/22 04:02:52;;;;;;;9.52;1.63;;;;;;;;;;5116519;28;20222;-78
2022/02/22 04:05:21;;;;;;;5.03;1.23;;;;;;;;;;5117428;28;20067;-78
2022/02/22 04:07:48;;;;;;;4.57;0.90;;;;;;;;;;5116663;28;20122;-78
2022/02/22 04:10:14;;;;;;;7.53;2.03;;;;;;;;;;5115702;28;20506;-78
2022/02/22 04:12:41;;;;;;;3.38;1.02;;;;;;;;;;5116561;28;20071;-78
2022/02/22 04:15:09;;;;;;;3.42;1.17;;;;;;;;;;5117098;28;20148;-78
2022/02/22 04:17:35;;;;;;;9.02;1.98;;;;;;;;;;5116037;28;20086;-78
2022/02/22 04:20:02;;;;;;;7.15;1.20;;;;;;;;;;5116604;28;20079;-78
2022/02/22 04:22:36;;;;;;;7.22;1.92;;;;;;;;;;5113105;28;20102;-79
2022/02/22 04:25:03;;;;;;;4.40;1.13;;;;;;;;;;5116762;28;20446;-78
2022/02/22 04:27:30;;;;;;;12.25;2.45;;;;;;;;;;5115389;28;20071;-78
2022/02/22 04:29:57;;;;;;;5.03;2.00;;;;;;;;;;5116558;28;20134;-78
2022/02/22 04:32:23;;;;;;;6.40;1.20;;;;;;;;;;5116305;28;20122;-78
2022/02/22 04:34:50;;;;;;;7.82;1.10;;;;;;;;;;5115496;28;20040;-78
2022/02/22 04:37:17;;;;;;;6.93;1.23;;;;;;;;;;5116211;28;20045;-78
2022/02/22 04:39:45;;;;;;;5.60;1.10;;;;;;;;;;5116505;28;20075;-77
2022/02/22 04:42:11;;;;;;;4.50;1.10;;;;;;;;;;5116100;28;20071;-77
2022/02/22 04:44:39;;;;;;;1.98;1.45;;;;;;;;;;5116202;28;20075;-78
2022/02/22 04:47:06;;;;;;;5.32;2.20;;;;;;;;;;5116225;28;20345;-78
2022/02/22 04:49:32;;;;;;;2.92;1.15;;;;;;;;;;5116158;28;20385;-78
2022/02/22 04:51:59;;;;;;;5.85;0.90;;;;;;;;;;5116219;28;20046;-78
2022/02/22 04:54:25;;;;;;;4.78;1.60;;;;;;;;;;5116021;28;20043;-78
2022/02/22 04:56:53;;;;;;;4.63;0.80;;;;;;;;;;5116327;28;20101;-78
2022/02/22 04:59:20;;;;;;;9.05;1.52;;;;;;;;;;5116481;28;20127;-78
2022/02/22 05:01:47;;;;;;;5.35;1.25;;;;;;;;;;5115294;28;20075;-77
2022/02/22 05:04:13;;;;;;;6.55;1.08;;;;;;;;;;5116333;28;20122;-77
2022/02/22 05:06:40;;;;;;;2.88;0.93;;;;;;;;;;5116393;28;20131;-78
2022/02/22 05:09:07;;;;;;;5.25;1.00;;;;;;;;;;5120268;28;20075;-78
2022/02/22 05:11:34;;;;;;;1.25;0.60;;;;;;;;;;5120638;28;20089;-78
2022/02/22 05:14:03;;;;;;;2.20;0.90;;;;;;;;;;5120735;28;20071;-78
2022/02/22 05:16:30;;;;;;;3.90;0.88;;;;;;;;;;5119612;28;20098;-78
2022/02/22 05:18:57;;;;;;;7.47;0.88;;;;;;;;;;5120390;28;20123;-78
2022/02/22 05:21:24;;;;;;;2.45;0.98;;;;;;;;;;5120485;28;20051;-79
2022/02/22 05:23:50;;;;;;;4.13;0.85;;;;;;;;;;5119214;28;20091;-78
2022/02/22 05:26:17;;;;;;;1.50;0.80;;;;;;;;;;5120543;28;20118;-78
2022/02/22 05:28:44;;;;;;;4.10;1.10;;;;;;;;;;5119495;28;20578;-78
2022/02/22 05:31:13;;;;;;;3.92;0.95;;;;;;;;;;5119530;28;20419;-79
2022/02/22 05:33:40;;;;;;;2.25;0.80;;;;;;;;;;5120293;28;20043;-77
2022/02/22 05:36:07;;;;;;;2.80;1.33;;;;;;;;;;5120553;28;20067;-78
2022/02/22 05:38:33;;;;;;;8.98;2.08;;;;;;;;;;5119556;28;20078;-78
2022/02/22 05:41:00;;;;;;;5.13;0.82;;;;;;;;;;5119886;28;20103;-78
2022/02/22 05:43:26;;;;;;;7.10;1.83;;;;;;;;;;5119430;28;20089;-78
2022/02/22 05:45:54;;;;;;;2.95;1.10;;;;;;;;;;5119621;28;20078;-78
2022/02/22 05:48:22;;;;;;;4.32;1.23;;;;;;;;;;5118408;28;20046;-78
2022/02/22 05:50:49;;;;;;;4.03;0.90;;;;;;;;;;5118388;28;20438;-78
2022/02/22 05:53:15;;;;;;;5.95;1.00;;;;;;;;;;5118023;28;20479;-79
2022/02/22 05:55:42;;;;;;;5.93;1.98;;;;;;;;;;5118859;28;20123;-79
2022/02/22 05:58:09;;;;;;;10.45;3.75;;;;;;;;;;5117919;28;20512;-79
2022/02/22 06:00:35;;;;;;;8.05;1.70;;;;;;;;;;5119247;28;20050;-81
2022/02/22 06:03:02;;;;;;;3.83;1.35;;;;;;;;;;5119814;28;20067;-79
2022/02/22 06:05:33;;;;;;;5.75;1.50;;;;;;;;;;5119117;28;20119;-78
2022/02/22 06:07:59;;;;;;;10.85;2.28;;;;;;;;;;5120234;28;20368;-78
2022/02/22 06:10:28;;;;;;;5.18;1.40;;;;;;;;;;5120147;28;20126;-78
2022/02/22 06:12:54;;;;;;;4.05;1.20;;;;;;;;;;5120512;28;20100;-78
2022/02/22 06:15:22;;;;;;;7.75;1.17;;;;;;;;;;5120573;28;20377;-79
2022/02/22 06:17:49;;;;;;;6.88;1.20;;;;;;;;;;5119837;28;20051;-79
2022/02/22 06:20:15;;;;;;;8.05;2.10;;;;;;;;;;5118591;28;20040;-79
2022/02/22 06:22:45;;;;;;;5.18;1.40;;;;;;;;;;5117328;28;20552;-78
2022/02/22 06:25:12;;;;;;;5.57;1.73;;;;;;;;;;5119410;28;20418;-79
2022/02/22 06:27:50;;;;;;;4.63;1.00;;;;;;;;;;5119725;28;20074;-81
2022/02/22 06:30:17;;;;;;;7.22;1.67;;;;;;;;;;5126124;27;20043;-81
2022/02/22 06:32:44;;;;;;;1.90;0.90;;;;;;;;;;5142457;27;20127;-81
2022/02/22 06:35:11;;;;;;;4.18;1.30;;;;;;;;;;5143983;27;20039;-82
2022/02/22 06:37:39;;;;;;;5.25;1.23;;;;;;;;;;5143376;27;20092;-82
2022/02/22 06:40:09;;;;;;;5.15;1.60;;;;;;;;;;5125056;27;20383;-82
2022/02/22 06:42:38;;;;;;;6.78;1.33;;;;;;;;;;5141017;27;20039;-82
2022/02/22 06:45:10;;;;;;;5.47;1.23;;;;;;;;;;5141376;27;20074;-81
2022/02/22 06:47:38;;;;;;;7.20;1.70;;;;;;;;;;5142758;27;20094;-81
2022/02/22 06:50:06;;;;;;;3.97;1.30;;;;;;;;;;5142873;27;20078;-81
2022/02/22 06:52:33;;;;;;;6.07;1.38;;;;;;;;;;5140135;27;20074;-81
2022/02/22 06:55:00;;;;;;;6.05;1.58;;;;;;;;;;5140953;27;20122;-81
2022/02/22 06:57:28;;;;;;;4.85;1.88;;;;;;;;;;5142484;27;20071;-81
2022/02/22 06:59:56;;;;;;;6.70;1.70;;;;;;;;;;5124081;27;20043;-81
2022/02/22 07:02:23;;;;;;;5.28;1.38;;;;;;;;;;5142629;27;20361;-81
2022/02/22 07:04:50;;;;;;;8.75;2.80;;;;;;;;;;5108191;27;20040;-81
2022/02/22 07:07:22;;;;;;;5.45;1.60;;;;;;;;;;5141185;27;20077;-81
2022/02/22 07:09:49;;;;;;;3.22;1.20;;;;;;;;;;5140800;27;20039;-81
2022/02/22 07:12:15;;;;;;;7.65;2.67;;;;;;;;;;5139211;27;20043;-81
2022/02/22 07:14:42;;;;;;;4.35;1.30;;;;;;;;;;5139203;27;20057;-80
2022/02/22 07:17:10;;;;;;;1.95;1.20;;;;;;;;;;5141566;27;20122;-80
2022/02/22 07:19:37;;;;;;;4.15;1.02;;;;;;;;;;5140441;27;20071;-80
2022/02/22 07:22:04;;;;;;;8.63;1.73;;;;;;;;;;5141694;27;20035;-80
2022/02/22 07:24:31;;;;;;;5.63;1.17;;;;;;;;;;5139776;27;20146;-80
2022/02/22 07:26:57;;;;;;;1.85;0.90;;;;;;;;;;5140651;27;20482;-80
2022/02/22 07:29:24;;;;;;;8.68;1.77;;;;;;;;;;5141278;27;20082;-80
2022/02/22 07:31:50;;;;;;;7.00;1.33;;;;;;;;;;5140688;27;20082;-80
2022/02/22 07:34:18;;;;;;;10.75;1.60;;;;;;;;;;5147211;27;20035;-79
2022/02/22 07:36:45;;;;;;;3.83;1.05;;;;;;;;;;5149369;27;20054;-80
2022/02/22 07:39:11;;;;;;;8.15;1.30;;;;;;;;;;5151229;27;20058;-80
2022/02/22 07:41:38;;;;;;;6.80;1.40;;;;;;;;;;5146257;27;20043;-80
2022/02/22 07:44:05;;;;;;;4.18;1.38;;;;;;;;;;5140977;27;20424;-81
2022/02/22 07:46:32;;;;;;;6.70;1.40;;;;;;;;;;5134188;27;20123;-81
2022/02/22 07:48:59;;;;;;;4.85;2.10;;;;;;;;;;5119475;28;20082;-81
2022/02/22 07:51:27;;;;;;;11.32;2.08;;;;;;;;;;5118916;28;20050;-81
2022/02/22 07:53:54;;;;;;;6.45;1.60;;;;;;;;;;5119506;28;20039;-80
2022/02/22 07:56:21;;;;;;;2.30;1.10;;;;;;;;;;5119177;28;20036;-80
2022/02/22 07:58:48;;;;;;;5.03;2.50;;;;;;;;;;5119108;28;20078;-80
2022/02/22 08:01:14;;;;;;;5.50;1.23;;;;;;;;;;5118656;28;20460;-80
2022/02/22 08:03:44;;;;;;;8.27;1.25;;;;;;;;;;5119290;28;20098;-79
2022/02/22 08:06:11;;;;;;;4.05;1.52;;;;;;;;;;5119565;28;20039;-79
2022/02/22 08:08:39;;;;;;;5.30;1.02;;;;;;;;;;5118798;28;20515;-80
2022/02/22 08:11:06;;;;;;;10.40;2.78;;;;;;;;;;5118937;28;20048;-81
2022/02/22 08:13:32;;;;;;;6.55;2.08;;;;;;;;;;5119883;28;20040;-80
2022/02/22 08:15:59;;;;;;;4.95;1.73;;;;;;;;;;5119830;28;20074;-80
2022/02/22 08:18:25;;;;;;;5.65;1.67;;;;;;;;;;5119573;28;20051;-80
2022/02/22 08:20:52;;;;;;;6.30;1.38;;;;;;;;;;5118550;28;20099;-80
2022/02/22 08:23:19;;;;;;;5.32;2.90;;;;;;;;;;5118353;28;20097;-82
2022/02/22 08:25:47;;;;;;;8.23;2.55;;;;;;;;;;5119637;28;20471;-79
2022/02/22 08:28:13;;;;;;;8.70;1.58;;;;;;;;;;5120059;28;20046;-81
2022/02/22 08:30:40;;;;;;;6.25;1.95;;;;;;;;;;5119277;28;20098;-80
2022/02/22 08:33:08;;;;;;;7.57;1.70;;;;;;;;;;5119356;28;20070;-82
2022/02/22 08:35:34;;;;;;;6.38;2.17;;;;;;;;;;5119148;28;20063;-82
2022/02/22 08:38:01;;;;;;;7.25;1.58;;;;;;;;;;5118768;28;20043;-81
2022/02/22 08:40:29;;;;;;;12.45;2.35;;;;;;;;;;5120011;28;20364;-83
2022/02/22 08:42:59;;;;;;;3.33;1.20;;;;;;;;;;5105271;28;20058;-83
2022/02/22 08:45:27;;;;;;;5.97;1.48;;;;;;;;;;5106328;28;20426;-82
2022/02/22 08:47:54;;;;;;;3.00;1.17;;;;;;;;;;5134932;27;20039;-83
2022/02/22 08:50:22;;;;;;;6.00;2.75;;;;;;;;;;5133863;27;20520;-86
2022/02/22 08:52:48;;;;;;;7.80;2.15;;;;;;;;;;5120595;28;20065;-80
2022/02/22 08:55:21;;;;;;;6.40;1.73;;;;;;;;;;5128572;27;20063;-81
2022/02/22 08:57:48;;;;;;;6.40;1.67;;;;;;;;;;5136611;27;20043;-80
2022/02/22 09:00:17;;;;;;;9.10;4.53;;;;;;;;;;5139935;27;20082;-81
2022/02/22 09:02:43;;;;;;;7.28;1.63;;;;;;;;;;5120786;27;20044;-80
2022/02/22 09:05:11;;;;;;;5.65;1.58;;;;;;;;;;5120284;27;20067;-79
2022/02/22 09:07:38;;;;;;;6.20;2.20;;;;;;;;;;5132045;27;20048;-80
2022/02/22 09:10:05;;;;;;;5.72;1.50;;;;;;;;;;5135553;27;20045;-79
2022/02/22 09:12:33;;;;;;;7.10;1.88;;;;;;;;;;5122894;27;20059;-79
2022/02/22 09:15:00;;;;;;;2.78;1.88;;;;;;;;;;5143454;27;20068;-80
2022/02/22 09:17:28;;;;;;;7.15;1.60;;;;;;;;;;5127758;27;20079;-80
2022/02/22 09:19:54;;;;;;;13.65;2.58;;;;;;;;;;5138951;27;21569;-80
2022/02/22 09:22:21;;;;;;;8.32;1.42;;;;;;;;;;5121376;28;20058;-79
2022/02/22 09:24:50;;;;;;;5.30;1.25;;;;;;;;;;5118896;28;20479;-79
2022/02/22 09:27:17;;;;;;;10.52;1.60;;;;;;;;;;5120920;28;20487;-79
2022/02/22 09:29:44;;;;;;;4.25;1.60;;;;;;;;;;5122772;28;20039;-80
2022/02/22 09:32:40;;;;;;;4.55;1.63;;;;;;;;;;5122984;28;20047;-82
2022/02/22 09:35:23;;;;;;;6.38;1.92;;;;;;;;;;5055796;28;20043;-82
2022/02/22 09:37:57;;;;;;;8.38;1.67;;;;;;;;;;5104845;28;20111;-82
2022/02/22 09:40:25;;;;;;;8.30;1.70;;;;;;;;;;5120368;28;20536;-82
2022/02/22 09:42:53;;;;;;;1.95;1.08;;;;;;;;;;5123319;28;20040;-82
2022/02/22 09:45:22;;;;;;;6.55;1.38;;;;;;;;;;5104276;28;20050;-83
2022/02/22 09:47:50;;;;;;;2.33;1.02;;;;;;;;;;5104872;28;20044;-84
2022/02/22 09:50:36;;;;;;;;;;;;;;;;;;;;;
2022/02/22 09:53:04;;;;;;;3.35;1.23;;;;;;;;;;5087707;28;20126;-81
2022/02/22 09:55:34;;;;;;;8.38;1.65;;;;;;;;;;5124007;27;20106;-81
2022/02/22 09:58:03;;;;;;;6.63;1.55;;;;;;;;;;5103693;28;20039;-80
2022/02/22 10:00:31;;;;;;;3.95;1.35;;;;;;;;;;5119481;28;20047;-81
2022/02/22 10:02:58;;;;;;;4.32;1.20;;;;;;;;;;5136034;27;20046;-80
2022/02/22 10:05:28;;;;;;;3.67;1.25;;;;;;;;;;5138838;27;20100;-80
2022/02/22 10:07:56;;;;;;;6.22;1.60;;;;;;;;;;5121893;28;20050;-80
2022/02/22 10:10:38;;;;;;;5.35;1.55;;;;;;;;;;5127558;27;20384;-81
2022/02/22 10:13:07;;;;;;;2.72;1.20;;;;;;;;;;5122767;27;20044;-80
2022/02/22 10:15:38;;;;;;;4.35;1.20;;;;;;;;;;5126056;28;20067;-80
2022/02/22 10:18:05;;;;;;;2.58;0.98;;;;;;;;;;5119356;28;20471;-79
2022/02/22 10:20:33;;;;;;;5.43;1.42;;;;;;;;;;5119396;27;20104;-81
2022/02/22 10:23:01;;;;;;;4.60;1.40;;;;;;;;;;5134876;27;20379;-80
2022/02/22 10:25:28;;;;;;;5.20;1.48;;;;;;;;;;5103444;28;20040;-88
2022/02/22 10:27:58;;;;;;;4.45;0.85;;;;;;;;;;5129536;27;20067;-80
2022/02/22 10:30:38;;;;;;;6.28;1.27;;;;;;;;;;5121544;28;20104;-79
2022/02/22 10:33:17;;;;;;;2.78;0.95;;;;;;;;;;5119733;27;20472;-79
2022/02/22 10:35:47;;;;;;;4.97;1.30;;;;;;;;;;5123435;27;20100;-80
2022/02/22 10:38:17;;;;;;;4.25;1.00;;;;;;;;;;5118662;28;20040;-80
2022/02/22 10:40:45;;;;;;;6.28;1.00;;;;;;;;;;5099764;28;20047;-81
2022/02/22 10:43:27;;;;;;;4.97;1.50;;;;;;;;;;5121878;28;20042;-80
2022/02/22 10:45:55;;;;;;;5.25;2.17;;;;;;;;;;5121306;28;20039;-80
2022/02/22 10:48:27;;;;;;;4.60;1.27;;;;;;;;;;5120811;28;20044;-81
2022/02/22 10:50:56;;;;;;;5.13;1.27;;;;;;;;;;5119974;28;20483;-81
2022/02/22 10:53:29;;;;;;;6.00;0.90;;;;;;;;;;5124730;27;20043;-81
2022/02/22 10:55:57;;;;;;;5.05;2.50;;;;;;;;;;5139056;27;20092;-81
2022/02/22 10:58:25;;;;;;;3.13;1.00;;;;;;;;;;5138852;27;20096;-81
2022/02/22 11:00:52;;;;;;;3.80;1.30;;;;;;;;;;5138919;27;20038;-81
2022/02/22 11:03:23;;;;;;;7.03;1.33;;;;;;;;;;5140786;27;20046;-81
2022/02/22 11:05:55;;;;;;;9.15;2.03;;;;;;;;;;5131544;27;20074;-82
2022/02/22 11:08:36;;;;;;;5.30;1.80;;;;;;;;;;5142190;27;20053;-81
2022/02/22 11:11:05;;;;;;;7.97;3.03;;;;;;;;;;5143438;27;20047;-81
2022/02/22 11:13:39;;;;;;;5.13;1.25;;;;;;;;;;5142664;27;20103;-81
2022/02/22 11:16:11;;;;;;;6.90;1.70;;;;;;;;;;5143473;27;20039;-81
2022/02/22 11:18:46;;;;;;;4.97;1.50;;;;;;;;;;5120940;28;20055;-81
2022/02/22 11:21:13;;;;;;;5.38;1.48;;;;;;;;;;5120135;28;20040;-81
2022/02/22 11:23:54;;;;;;;4.32;1.25;;;;;;;;;;5117427;28;20100;-81
2022/02/22 11:26:22;;;;;;;4.20;1.20;;;;;;;;;;5121206;28;20506;-81
2022/02/22 11:28:52;;;;;;;7.70;1.73;;;;;;;;;;5122107;28;20092;-80
2022/02/22 11:31:20;;;;;;;4.30;1.52;;;;;;;;;;5102649;28;20065;-80
2022/02/22 11:33:48;;;;;;;5.70;2.13;;;;;;;;;;5121144;28;20040;-80
2022/02/22 11:36:25;;;;;;;7.07;2.17;;;;;;;;;;5129418;27;20077;-80
2022/02/22 11:38:54;;;;;;;4.65;1.80;;;;;;;;;;5140133;27;20071;-80
2022/02/22 11:41:24;;;;;;;4.10;1.13;;;;;;;;;;5139186;27;20081;-79
2022/02/22 11:43:53;;;;;;;8.20;2.75;;;;;;;;;;5138609;27;20039;-79
2022/02/22 11:46:19;;;;;;;5.32;1.38;;;;;;;;;;5120368;28;20440;-80
2022/02/22 11:48:48;;;;;;;8.43;1.88;;;;;;;;;;5120044;28;20071;-79
2022/02/22 11:51:15;;;;;;;7.70;2.00;;;;;;;;;;5119448;28;20086;-79
2022/02/22 11:53:49;;;;;;;4.45;1.42;;;;;;;;;;5116681;27;20063;-79
2022/02/22 11:56:23;;;;;;;6.38;1.40;;;;;;;;;;5126393;27;20067;-79
2022/02/22 11:58:50;;;;;;;9.13;1.45;;;;;;;;;;5140202;27;20088;-80
2022/02/22 12:01:18;;;;;;;3.90;1.35;;;;;;;;;;5139954;27;20043;-79
2022/02/22 12:03:46;;;;;;;3.42;1.30;;;;;;;;;;5140387;27;20372;-81
2022/02/22 12:06:12;;;;;;;5.78;1.70;;;;;;;;;;5139927;27;20108;-80
2022/02/22 12:08:41;;;;;;;9.23;1.40;;;;;;;;;;5140227;27;20106;-80
2022/02/22 12:11:14;;;;;;;4.07;1.50;;;;;;;;;;5140165;27;20065;-81
2022/02/22 12:13:46;;;;;;;5.50;1.50;;;;;;;;;;5140219;27;20043;-81
2022/02/22 12:16:14;;;;;;;3.42;1.27;;;;;;;;;;5140379;27;20071;-81
2022/02/22 12:18:43;;;;;;;5.78;1.65;;;;;;;;;;5141750;27;20075;-81
2022/02/22 12:21:09;;;;;;;4.85;1.60;;;;;;;;;;5142505;27;20079;-81
2022/02/22 12:23:38;;;;;;;3.92;1.38;;;;;;;;;;5139024;28;20082;-79
2022/02/22 12:26:06;;;;;;;6.78;1.50;;;;;;;;;;5141074;28;20479;-79
2022/02/22 12:28:33;;;;;;;5.25;1.60;;;;;;;;;;5142312;28;20043;-79
2022/02/22 12:31:01;;;;;;;6.70;1.17;;;;;;;;;;5125004;28;20114;-79
2022/02/22 12:33:34;;;;;;;4.93;1.30;;;;;;;;;;5128587;28;20221;-79
2022/02/22 12:36:13;;;;;;;7.05;1.30;;;;;;;;;;5125106;28;20082;-79
2022/02/22 12:38:39;;;;;;;2.85;1.13;;;;;;;;;;5118093;28;20074;-80
2022/02/22 12:41:12;;;;;;;3.80;1.30;;;;;;;;;;5119866;28;20071;-80
2022/02/22 12:43:46;;;;;;;5.47;1.73;;;;;;;;;;5117165;28;20474;-79
2022/02/22 12:46:14;;;;;;;11.20;1.15;;;;;;;;;;5116821;28;20427;-80
2022/02/22 12:48:41;;;;;;;7.68;1.08;;;;;;;;;;5118136;28;20039;-79
2022/02/22 12:51:08;;;;;;;3.72;0.93;;;;;;;;;;5118108;28;20086;-80
2022/02/22 12:53:35;;;;;;;1.65;1.15;;;;;;;;;;5128488;28;20517;-83
2022/02/22 12:56:01;;;;;;;6.05;1.80;;;;;;;;;;5116654;28;20494;-79
2022/02/22 12:58:33;;;;;;;3.95;1.67;;;;;;;;;;5116905;28;20082;-81
2022/02/22 13:01:16;;;;;;;5.35;1.10;;;;;;;;;;5100369;28;20443;-80
2022/02/22 13:03:45;;;;;;;3.33;1.10;;;;;;;;;;5115715;28;20040;-80
2022/02/22 13:06:12;;;;;;;3.33;1.15;;;;;;;;;;5102103;28;20149;-78
2022/02/22 13:08:39;;;;;;;3.03;1.35;;;;;;;;;;5124389;28;20060;-81
2022/02/22 13:11:06;;;;;;;2.20;0.77;;;;;;;;;;5115440;28;20052;-82
2022/02/22 13:13:32;;;;;;;2.60;0.98;;;;;;;;;;5118269;28;20043;-80
2022/02/22 13:16:08;;;;;;;2.13;0.88;;;;;;;;;;5100273;28;20036;-80
2022/02/22 13:18:36;;;;;;;2.75;0.90;;;;;;;;;;5122340;28;20043;-81
2022/02/22 13:21:11;;;;;;;3.38;0.90;;;;;;;;;;5117119;28;20071;-79
2022/02/22 13:23:38;;;;;;;2.17;0.47;;;;;;;;;;5116958;28;20117;-80
2022/02/22 13:26:05;;;;;;;2.65;0.88;;;;;;;;;;5116252;28;20055;-80
2022/02/22 13:28:32;;;;;;;1.38;0.70;;;;;;;;;;5120358;28;20097;-80
2022/02/22 13:30:59;;;;;;;2.10;0.75;;;;;;;;;;5122125;28;20039;-79
2022/02/22 13:33:26;;;;;;;2.72;0.80;;;;;;;;;;5122826;28;20126;-80
2022/02/22 13:36:04;;;;;;;2.72;0.88;;;;;;;;;;5123179;28;20035;-81
2022/02/22 13:38:32;;;;;;;1.10;0.50;;;;;;;;;;5122270;28;20039;-81
2022/02/22 13:41:07;;;;;;;3.15;0.65;;;;;;;;;;5124751;27;20456;-80
2022/02/22 13:43:34;;;;;;;1.83;0.90;;;;;;;;;;5146246;27;20487;-81
2022/02/22 13:46:08;;;;;;;1.42;0.70;;;;;;;;;;5144474;27;20075;-80
2022/02/22 13:48:35;;;;;;;3.92;0.95;;;;;;;;;;5144405;27;20097;-80
2022/02/22 13:51:09;;;;;;;2.15;0.90;;;;;;;;;;5143114;27;20075;-81
2022/02/22 13:53:36;;;;;;;3.10;1.08;;;;;;;;;;5143448;27;20495;-81
2022/02/22 13:56:04;;;;;;;3.15;1.05;;;;;;;;;;5138757;27;20059;-79
2022/02/22 13:58:33;;;;;;;2.20;0.85;;;;;;;;;;5125789;28;20074;-81
2022/02/22 14:01:01;;;;;;;3.97;0.90;;;;;;;;;;5124421;28;20039;-79
2022/02/22 14:03:28;;;;;;;2.38;0.77;;;;;;;;;;5127463;28;20040;-81
2022/02/22 14:05:54;;;;;;;1.95;0.88;;;;;;;;;;5126690;28;20066;-79
2022/02/22 14:08:22;;;;;;;2.47;0.90;;;;;;;;;;5126127;27;20036;-80
2022/02/22 14:10:49;;;;;;;2.13;1.05;;;;;;;;;;5123079;27;20040;-81
2022/02/22 14:13:17;;;;;;;3.22;1.10;;;;;;;;;;5141393;27;20070;-79
2022/02/22 14:15:44;;;;;;;4.90;1.10;;;;;;;;;;5126737;27;20119;-80
2022/02/22 14:18:12;;;;;;;3.97;1.00;;;;;;;;;;5125990;27;20069;-81
2022/02/22 14:20:39;;;;;;;4.32;1.55;;;;;;;;;;5141540;27;20070;-80
2022/02/22 14:23:07;;;;;;;2.42;0.90;;;;;;;;;;5145609;27;20073;-80
2022/02/22 14:25:36;;;;;;;3.17;0.88;;;;;;;;;;5125222;28;20110;-83
2022/02/22 14:28:04;;;;;;;3.90;1.27;;;;;;;;;;5128687;27;20051;-81
2022/02/22 14:30:31;;;;;;;6.70;1.48;;;;;;;;;;5145215;27;20039;-80
2022/02/22 14:32:58;;;;;;;4.78;1.58;;;;;;;;;;5143002;27;20126;-79
2022/02/22 14:35:25;;;;;;;6.88;1.30;;;;;;;;;;5126883;27;20104;-80
2022/02/22 14:37:52;;;;;;;4.85;2.03;;;;;;;;;;5135602;27;20077;-80
2022/02/22 14:40:18;;;;;;;4.60;1.10;;;;;;;;;;5128293;27;20051;-80
2022/02/22 14:42:46;;;;;;;7.53;1.45;;;;;;;;;;5141889;27;20066;-80
2022/02/22 14:45:13;;;;;;;3.47;1.25;;;;;;;;;;5145483;27;20043;-80
2022/02/22 14:47:40;;;;;;;4.93;1.73;;;;;;;;;;5143585;27;20479;-79